Time;durP1;ratioP1;P1;durP2;ratioP2;P2;SDS_P1;SDS_P2;PMS_P1;PMS_P2;Temp;Humidity;BMP_temperature;BMP_pressure;BME280_temperature;BME280_humidity;BME280_pressure;Samples;Min_cycle;Max_cycle;Signal;HPM_P1;HPM_P2
2022/06/18 00:00:12;;;;;;;3.60;1.67;;;19.90;83.70;;;;;;4132564;28;20290;-78
2022/06/18 00:02:18;;;;;;;1.40;1.30;;;19.90;82.20;;;;;;4140526;28;20659;-77
2022/06/18 00:04:23;;;;;;;3.03;1.50;;;19.90;83.30;;;;;;4135926;28;20215;-77
2022/06/18 00:06:25;;;;;;;2.57;1.30;;;19.80;83.30;;;;;;4138181;28;20269;-77
2022/06/18 00:08:30;;;;;;;4.40;1.40;;;19.80;84.60;;;;;;4134353;28;20256;-77
2022/06/18 00:10:32;;;;;;;1.77;1.37;;;19.70;84.90;;;;;;4135736;28;20206;-77
2022/06/18 00:14:54;;;;;;;2.63;1.40;;;19.70;83.10;;;;;;4134438;28;20203;-77
2022/06/18 00:16:59;;;;;;;1.90;1.30;;;19.60;84.60;;;;;;4137404;28;20288;-77
2022/06/18 00:19:02;;;;;;;2.73;1.60;;;19.60;86.30;;;;;;4137750;28;20738;-77
2022/06/18 00:21:06;;;;;;;4.07;1.40;;;19.50;84.30;;;;;;4137025;28;20310;-77
2022/06/18 00:23:14;;;;;;;4.03;1.53;;;19.50;85.90;;;;;;4141895;28;20302;-76
2022/06/18 00:25:21;;;;;;;4.57;1.30;;;19.40;84.70;;;;;;4137384;28;20225;-77
2022/06/18 00:27:23;;;;;;;2.20;1.27;;;19.40;85.00;;;;;;4137156;28;20228;-77
2022/06/18 00:29:28;;;;;;;3.43;1.30;;;19.40;85.40;;;;;;4137656;28;20668;-77
2022/06/18 00:31:32;;;;;;;2.30;1.30;;;19.30;84.50;;;;;;4149233;28;20675;-76
2022/06/18 00:33:35;;;;;;;4.07;1.40;;;19.30;84.40;;;;;;4135685;28;20210;-77
2022/06/18 00:35:39;;;;;;;3.00;1.30;;;19.30;84.60;;;;;;4138283;28;20243;-77
2022/06/18 00:37:42;;;;;;;2.03;1.20;;;19.30;84.20;;;;;;4133081;28;20689;-78
2022/06/18 00:39:44;;;;;;;1.87;1.10;;;19.20;85.80;;;;;;4139469;28;20211;-77
2022/06/18 00:41:51;;;;;;;3.50;1.53;;;19.20;85.30;;;;;;4132680;28;20232;-77
2022/06/18 00:43:56;;;;;;;1.77;1.40;;;19.10;86.30;;;;;;4137009;28;20215;-77
2022/06/18 00:46:05;;;;;;;2.00;1.40;;;19.10;89.20;;;;;;4140676;28;20769;-77
2022/06/18 00:48:14;;;;;;;2.40;1.30;;;19.10;88.10;;;;;;4134300;28;20224;-76
2022/06/18 00:50:22;;;;;;;1.60;1.20;;;19.00;89.10;;;;;;4138165;28;20211;-77
2022/06/18 00:52:32;;;;;;;2.77;1.30;;;19.00;88.80;;;;;;4141365;28;20240;-77
2022/06/18 00:54:40;;;;;;;3.17;1.37;;;19.00;88.00;;;;;;4139415;28;20220;-77
2022/06/18 00:56:49;;;;;;;3.63;1.30;;;19.00;90.20;;;;;;4142723;28;20200;-77
2022/06/18 00:58:55;;;;;;;1.83;1.10;;;19.00;90.00;;;;;;4145592;28;20212;-77
2022/06/18 01:00:58;;;;;;;2.87;1.20;;;19.00;89.40;;;;;;4140400;28;20268;-77
2022/06/18 01:02:59;;;;;;;2.47;1.10;;;18.90;91.00;;;;;;4136278;28;20631;-78
2022/06/18 01:05:01;;;;;;;1.83;1.30;;;18.90;90.40;;;;;;4141645;28;20358;-77
2022/06/18 01:07:07;;;;;;;3.40;1.33;;;18.90;90.70;;;;;;4142943;28;20225;-77
2022/06/18 01:09:15;;;;;;;1.70;1.10;;;18.80;90.40;;;;;;4143676;28;20332;-76
2022/06/18 01:11:22;;;;;;;2.00;1.10;;;18.80;90.30;;;;;;4144046;28;20623;-76
2022/06/18 01:13:30;;;;;;;6.70;1.50;;;18.80;90.90;;;;;;4138696;28;20849;-77
2022/06/18 01:15:32;;;;;;;1.67;1.20;;;18.70;90.80;;;;;;4138549;28;20271;-78
2022/06/18 01:17:36;;;;;;;2.77;1.33;;;18.70;91.30;;;;;;4137581;28;20302;-76
2022/06/18 01:19:40;;;;;;;2.00;1.30;;;18.70;91.40;;;;;;4136958;28;20222;-77
2022/06/18 01:21:51;;;;;;;2.70;1.13;;;18.70;91.50;;;;;;4144179;28;20233;-77
2022/06/18 01:23:58;;;;;;;2.07;1.30;;;18.60;91.80;;;;;;4139160;28;20217;-77
2022/06/18 01:26:02;;;;;;;1.90;1.07;;;18.60;92.20;;;;;;4141606;28;20216;-77
2022/06/18 01:28:04;;;;;;;3.17;1.23;;;18.60;92.10;;;;;;4140880;28;20214;-77
2022/06/18 01:30:08;;;;;;;3.37;1.57;;;18.60;92.10;;;;;;4130335;28;20236;-76
2022/06/18 01:32:15;;;;;;;2.47;1.10;;;18.60;92.40;;;;;;4139191;28;20333;-76
2022/06/18 01:34:20;;;;;;;3.20;1.50;;;18.60;93.30;;;;;;4141536;28;20299;-77
2022/06/18 01:36:22;;;;;;;1.73;1.30;;;18.50;93.80;;;;;;4143054;28;20317;-77
2022/06/18 01:38:25;;;;;;;3.43;1.20;;;18.50;94.10;;;;;;4144839;28;20225;-76
2022/06/18 01:40:34;;;;;;;2.00;1.33;;;18.50;94.30;;;;;;4140738;28;20217;-76
2022/06/18 01:42:41;;;;;;;5.23;1.43;;;18.40;94.60;;;;;;4132657;28;20240;-77
2022/06/18 01:44:48;;;;;;;4.30;1.17;;;18.60;95.50;;;;;;4134869;28;20295;-78
2022/06/18 01:46:51;;;;;;;3.33;1.23;;;18.40;95.50;;;;;;4143298;28;20252;-77
2022/06/18 01:48:55;;;;;;;4.97;1.30;;;18.30;95.80;;;;;;4138455;28;20330;-77
2022/06/18 01:51:01;;;;;;;3.23;1.20;;;18.30;95.70;;;;;;4136571;28;20231;-77
2022/06/18 01:53:09;;;;;;;1.67;1.10;;;18.30;95.80;;;;;;4138603;28;20323;-76
2022/06/18 01:55:16;;;;;;;2.93;1.20;;;18.20;95.70;;;;;;4134691;28;20274;-77
2022/06/18 01:57:22;;;;;;;1.80;1.30;;;18.20;96.50;;;;;;4137635;28;20212;-77
2022/06/18 01:59:29;;;;;;;7.93;1.13;;;18.20;96.40;;;;;;4142800;28;20209;-77
2022/06/18 02:01:38;;;;;;;4.33;1.60;;;18.20;96.20;;;;;;4132136;28;20243;-77
2022/06/18 02:03:40;;;;;;;1.70;1.13;;;18.20;96.60;;;;;;4136986;28;20220;-77
2022/06/18 02:05:42;;;;;;;1.93;1.00;;;18.10;96.70;;;;;;4138071;28;20243;-77
2022/06/18 02:07:46;;;;;;;4.03;1.30;;;18.10;97.00;;;;;;4143834;28;20271;-77
2022/06/18 02:09:52;;;;;;;2.80;1.10;;;18.10;97.10;;;;;;4146952;28;20215;-76
2022/06/18 02:11:57;;;;;;;3.57;1.37;;;18.00;96.80;;;;;;4136042;28;20228;-77
2022/06/18 02:14:03;;;;;;;3.87;1.30;;;18.00;97.00;;;;;;4144255;28;20303;-77
2022/06/18 02:16:11;;;;;;;3.23;1.23;;;18.00;97.00;;;;;;4138568;28;20239;-77
2022/06/18 02:18:16;;;;;;;1.70;1.23;;;18.00;97.50;;;;;;4138672;28;20292;-77
2022/06/18 02:20:20;;;;;;;1.30;1.10;;;17.90;97.20;;;;;;4139892;28;20307;-77
2022/06/18 02:22:29;;;;;;;2.07;1.23;;;17.90;97.20;;;;;;4130731;28;20237;-77
2022/06/18 02:24:30;;;;;;;5.17;1.23;;;17.90;97.10;;;;;;4137079;28;20208;-77
2022/06/18 02:26:35;;;;;;;3.63;1.30;;;17.90;97.60;;;;;;4139839;28;20623;-78
2022/06/18 02:28:40;;;;;;;3.23;1.30;;;17.80;97.80;;;;;;4142009;28;20207;-78
2022/06/18 02:30:42;;;;;;;5.67;1.33;;;17.80;97.60;;;;;;4135500;28;20235;-77
2022/06/18 02:32:53;;;;;;;1.10;1.00;;;17.80;97.60;;;;;;4136024;28;20229;-77
2022/06/18 02:34:55;;;;;;;2.33;1.27;;;17.70;98.50;;;;;;4137865;28;20303;-77
2022/06/18 02:37:00;;;;;;;1.63;1.10;;;17.70;98.40;;;;;;4139507;28;20209;-77
2022/06/18 02:39:27;;;;;;;1.67;1.10;;;17.70;98.40;;;;;;4141033;28;20211;-77
2022/06/18 02:41:29;;;;;;;3.33;1.20;;;17.60;98.60;;;;;;4141913;28;20222;-76
2022/06/18 02:43:30;;;;;;;1.63;1.00;;;17.60;98.60;;;;;;4145984;28;20207;-77
2022/06/18 02:45:33;;;;;;;4.63;1.77;;;17.60;98.70;;;;;;4143157;28;20211;-77
2022/06/18 02:47:35;;;;;;;2.33;1.33;;;17.50;98.80;;;;;;4136435;28;20610;-77
2022/06/18 02:49:43;;;;;;;4.20;1.17;;;17.50;98.70;;;;;;4144383;28;20213;-77
2022/06/18 02:51:45;;;;;;;3.00;1.20;;;17.60;98.70;;;;;;4140863;28;20223;-76
2022/06/18 02:53:47;;;;;;;4.40;0.90;;;17.50;99.00;;;;;;4139867;28;20655;-76
2022/06/18 02:55:52;;;;;;;3.53;1.23;;;17.50;98.60;;;;;;4144802;28;20211;-76
2022/06/18 02:58:01;;;;;;;3.97;1.50;;;17.50;98.60;;;;;;4139195;28;20793;-76
2022/06/18 03:00:05;;;;;;;4.60;1.00;;;17.50;99.80;;;;;;4142669;28;20303;-77
2022/06/18 03:02:07;;;;;;;5.00;1.10;;;17.40;99.90;;;;;;4142070;28;20279;-77
2022/06/18 03:04:09;;;;;;;3.53;1.20;;;17.40;99.90;;;;;;4145042;28;20220;-77
2022/06/18 03:06:13;;;;;;;5.63;1.50;;;17.40;99.90;;;;;;4146821;28;20311;-77
2022/06/18 03:08:18;;;;;;;1.97;1.00;;;17.40;99.90;;;;;;4138071;28;20235;-76
2022/06/18 03:12:42;;;;;;;3.03;1.03;;;17.30;99.90;;;;;;4138466;28;20274;-76
2022/06/18 03:14:47;;;;;;;2.97;1.00;;;17.30;99.90;;;;;;4137787;28;20243;-77
2022/06/18 03:16:50;;;;;;;3.17;1.40;;;17.30;99.70;;;;;;4140671;28;20216;-77
2022/06/18 03:18:54;;;;;;;2.30;1.20;;;17.30;99.70;;;;;;4137309;28;20209;-76
2022/06/18 03:21:05;;;;;;;1.90;1.30;;;17.30;99.70;;;;;;4149921;28;20217;-76
2022/06/18 03:23:13;;;;;;;2.10;1.23;;;17.30;99.70;;;;;;4137337;28;20753;-76
2022/06/18 03:25:15;;;;;;;3.63;1.30;;;17.30;99.70;;;;;;4145412;28;20214;-77
2022/06/18 03:27:18;;;;;;;2.43;1.13;;;17.30;99.60;;;;;;4138757;28;20587;-77
2022/06/18 03:29:20;;;;;;;1.50;1.27;;;17.30;99.90;;;;;;4141908;28;20497;-76
2022/06/18 03:31:22;;;;;;;1.40;1.07;;;17.30;99.90;;;;;;4138380;28;20832;-76
2022/06/18 03:33:26;;;;;;;7.93;1.30;;;17.30;99.90;;;;;;4136862;28;20215;-76
2022/06/18 03:35:28;;;;;;;3.60;1.77;;;17.30;99.90;;;;;;4139086;28;20264;-76
2022/06/18 03:37:30;;;;;;;2.77;1.40;;;17.20;99.90;;;;;;4142704;28;20212;-76
2022/06/18 03:39:33;;;;;;;2.80;1.40;;;17.20;99.90;;;;;;4139771;28;20600;-76
2022/06/18 03:41:35;;;;;;;5.33;1.50;;;17.20;99.90;;;;;;4137690;28;20236;-77
2022/06/18 03:43:37;;;;;;;3.37;1.33;;;17.20;99.90;;;;;;4142848;28;20219;-76
2022/06/18 03:45:42;;;;;;;3.27;1.20;;;17.20;99.90;;;;;;4135945;28;20290;-76
2022/06/18 03:47:44;;;;;;;4.80;1.30;;;17.20;99.90;;;;;;4144011;28;20714;-76
2022/06/18 03:49:47;;;;;;;5.10;1.30;;;17.20;99.90;;;;;;4139316;28;20207;-76
2022/06/18 03:51:48;;;;;;;2.87;1.20;;;17.20;99.90;;;;;;4146621;28;20247;-76
2022/06/18 03:53:51;;;;;;;2.77;1.47;;;17.20;99.90;;;;;;4139307;28;20666;-76
2022/06/18 03:55:54;;;;;;;1.57;1.10;;;17.20;99.90;;;;;;4120050;28;20223;-77
2022/06/18 03:57:56;;;;;;;5.53;1.20;;;17.20;99.90;;;;;;4141969;28;20729;-77
2022/06/18 03:59:58;;;;;;;2.60;1.33;;;17.10;99.90;;;;;;4142273;28;20215;-77
2022/06/18 04:02:00;;;;;;;4.40;1.10;;;17.10;99.90;;;;;;4141414;28;20461;-77
2022/06/18 04:04:02;;;;;;;2.90;1.07;;;17.10;99.90;;;;;;4143751;28;20192;-77
2022/06/18 04:06:04;;;;;;;3.70;1.27;;;17.10;99.90;;;;;;4141495;28;20241;-77
2022/06/18 04:08:06;;;;;;;1.90;1.23;;;17.10;99.90;;;;;;4143565;28;20594;-77
2022/06/18 04:10:09;;;;;;;3.03;1.10;;;17.10;99.90;;;;;;4150367;28;20238;-77
2022/06/18 04:12:12;;;;;;;2.33;1.30;;;17.10;99.90;;;;;;4146076;28;20263;-76
2022/06/18 04:14:14;;;;;;;2.97;1.27;;;17.10;99.90;;;;;;4138631;28;20228;-77
2022/06/18 04:16:16;;;;;;;2.43;1.13;;;17.10;99.90;;;;;;4147334;28;20211;-77
2022/06/18 04:18:21;;;;;;;3.10;1.10;;;17.10;99.90;;;;;;4153321;28;20203;-77
2022/06/18 04:20:25;;;;;;;3.10;1.50;;;17.20;99.90;;;;;;4140914;28;20246;-77
2022/06/18 04:22:28;;;;;;;1.83;1.27;;;17.10;99.90;;;;;;4140567;28;20695;-76
2022/06/18 04:24:30;;;;;;;4.03;1.50;;;17.20;99.90;;;;;;4141957;28;20211;-76
2022/06/18 04:26:31;;;;;;;3.43;1.07;;;17.20;99.90;;;;;;4142989;28;20220;-76
2022/06/18 04:28:35;;;;;;;4.07;1.20;;;17.20;99.90;;;;;;4132632;28;20710;-77
2022/06/18 04:30:37;;;;;;;1.93;1.00;;;17.20;99.90;;;;;;4139036;28;20289;-76
2022/06/18 04:32:39;;;;;;;1.83;1.20;;;17.20;99.90;;;;;;4142589;28;20266;-77
2022/06/18 04:34:42;;;;;;;3.10;1.40;;;17.20;99.90;;;;;;4154408;28;20928;-76
2022/06/18 04:36:44;;;;;;;4.97;1.40;;;17.20;99.90;;;;;;4141869;28;20243;-77
2022/06/18 04:38:46;;;;;;;2.03;1.30;;;17.30;99.90;;;;;;4140387;28;20529;-77
2022/06/18 04:40:48;;;;;;;2.50;1.40;;;17.20;99.90;;;;;;4136518;28;20295;-76
2022/06/18 04:42:50;;;;;;;2.40;1.50;;;17.30;99.90;;;;;;4134894;28;20294;-77
2022/06/18 04:44:54;;;;;;;2.67;1.40;;;17.30;99.90;;;;;;4136661;28;20204;-77
2022/06/18 04:46:55;;;;;;;3.13;1.40;;;17.30;99.90;;;;;;4145881;28;20283;-77
2022/06/18 04:48:58;;;;;;;3.07;1.43;;;17.40;99.90;;;;;;4138407;28;20314;-77
2022/06/18 04:51:00;;;;;;;2.60;1.67;;;17.40;99.90;;;;;;4145551;28;20223;-77
2022/06/18 04:53:01;;;;;;;3.53;1.87;;;17.40;99.90;;;;;;4137478;28;20262;-77
2022/06/18 04:55:04;;;;;;;2.87;1.60;;;17.50;99.90;;;;;;4138221;28;20732;-77
2022/06/18 04:57:06;;;;;;;3.43;1.50;;;17.50;99.90;;;;;;4140688;28;20265;-77
2022/06/18 04:59:08;;;;;;;4.63;1.50;;;17.50;99.90;;;;;;4142433;28;20205;-77
2022/06/18 05:01:15;;;;;;;1.87;1.20;;;17.60;99.90;;;;;;4145016;28;20211;-77
2022/06/18 05:03:20;;;;;;;1.67;1.43;;;17.60;99.70;;;;;;4140085;28;20636;-77
2022/06/18 05:05:25;;;;;;;3.47;1.33;;;17.70;99.50;;;;;;4142079;28;20216;-77
2022/06/18 05:07:27;;;;;;;1.83;1.20;;;17.80;99.00;;;;;;4133185;28;20238;-77
2022/06/18 05:09:29;;;;;;;2.83;1.30;;;17.80;98.90;;;;;;4139774;28;20222;-77
2022/06/18 05:11:31;;;;;;;3.47;1.20;;;17.80;98.90;;;;;;4143687;28;20581;-77
2022/06/18 05:13:32;;;;;;;1.37;1.10;;;17.90;98.80;;;;;;4144538;28;20232;-77
2022/06/18 05:15:35;;;;;;;6.50;1.43;;;17.90;98.00;;;;;;4153585;28;20216;-77
2022/06/18 05:17:43;;;;;;;3.67;1.30;;;18.00;97.70;;;;;;4138566;28;20248;-77
2022/06/18 05:19:45;;;;;;;2.57;1.43;;;18.10;97.50;;;;;;4145252;28;20214;-77
2022/06/18 05:21:47;;;;;;;4.97;1.20;;;18.20;97.20;;;;;;4146799;28;20686;-77
2022/06/18 05:23:49;;;;;;;6.77;1.40;;;18.20;97.00;;;;;;4137402;28;20208;-77
2022/06/18 05:25:53;;;;;;;2.67;1.10;;;18.20;96.80;;;;;;4144966;28;20305;-77
2022/06/18 05:27:55;;;;;;;1.47;1.37;;;18.20;97.00;;;;;;4143799;28;20264;-77
2022/06/18 05:29:57;;;;;;;1.83;1.40;;;18.30;97.00;;;;;;4139602;28;20236;-77
2022/06/18 05:31:59;;;;;;;3.20;1.40;;;18.40;96.40;;;;;;4137655;28;20324;-77
2022/06/18 05:34:03;;;;;;;4.03;1.10;;;18.50;94.20;;;;;;4136576;28;20205;-77
2022/06/18 05:36:09;;;;;;;1.63;1.13;;;18.60;95.20;;;;;;4140498;28;20206;-77
2022/06/18 05:38:15;;;;;;;1.40;1.20;;;18.60;93.40;;;;;;4138456;28;20271;-77
2022/06/18 05:40:20;;;;;;;1.87;1.30;;;18.60;93.30;;;;;;4149026;28;20210;-77
2022/06/18 05:42:22;;;;;;;2.20;1.10;;;18.80;92.30;;;;;;4149008;28;20766;-77
2022/06/18 05:44:24;;;;;;;2.97;1.33;;;18.80;92.00;;;;;;4142769;28;20210;-77
2022/06/18 05:46:26;;;;;;;1.83;1.10;;;18.90;90.70;;;;;;4137401;28;20239;-77
2022/06/18 05:48:28;;;;;;;4.87;1.10;;;19.00;90.30;;;;;;4138870;28;20690;-77
2022/06/18 05:50:31;;;;;;;1.97;1.40;;;19.00;90.10;;;;;;4141246;28;20742;-77
2022/06/18 05:52:34;;;;;;;2.80;1.10;;;19.20;89.10;;;;;;4156985;28;20316;-77
2022/06/18 05:54:36;;;;;;;3.13;1.30;;;19.20;86.90;;;;;;4145239;28;20244;-77
2022/06/18 05:56:38;;;;;;;1.97;1.30;;;19.30;85.70;;;;;;4143129;28;20202;-77
2022/06/18 05:58:39;;;;;;;2.47;1.40;;;19.40;81.60;;;;;;4144759;28;20207;-77
2022/06/18 06:00:41;;;;;;;6.67;1.30;;;19.60;79.00;;;;;;4140012;28;20217;-77
2022/06/18 06:02:43;;;;;;;1.63;1.10;;;19.70;78.70;;;;;;4146515;28;20591;-77
2022/06/18 06:04:46;;;;;;;2.40;1.10;;;19.70;79.60;;;;;;4140635;28;20631;-77
2022/06/18 06:06:51;;;;;;;1.97;1.07;;;19.90;78.20;;;;;;4153785;28;20245;-77
2022/06/18 06:08:52;;;;;;;3.77;1.23;;;20.00;74.80;;;;;;4147483;28;20309;-77
2022/06/18 06:13:15;;;;;;;3.40;1.23;;;20.00;75.60;;;;;;4160034;28;20221;-78
2022/06/18 06:15:17;;;;;;;5.87;1.97;;;20.20;76.20;;;;;;4133292;28;20234;-77
2022/06/18 06:17:22;;;;;;;2.10;1.20;;;20.30;73.40;;;;;;4139786;28;20634;-77
2022/06/18 06:19:25;;;;;;;3.27;1.30;;;20.30;74.40;;;;;;4143715;28;20204;-77
2022/06/18 06:21:26;;;;;;;4.37;1.30;;;20.40;76.60;;;;;;4158022;28;20214;-77
2022/06/18 06:23:30;;;;;;;2.07;1.30;;;20.50;75.00;;;;;;4141379;28;20327;-77
2022/06/18 06:25:32;;;;;;;3.60;1.10;;;20.60;74.30;;;;;;4145733;28;20202;-77
2022/06/18 06:27:34;;;;;;;3.87;1.00;;;20.70;73.60;;;;;;4149794;28;20264;-77
2022/06/18 06:29:36;;;;;;;2.77;0.90;;;20.80;70.60;;;;;;4148925;28;20334;-78
2022/06/18 06:31:38;;;;;;;1.43;1.17;;;20.90;67.30;;;;;;4142798;28;20259;-78
2022/06/18 06:33:40;;;;;;;5.07;1.30;;;21.00;66.00;;;;;;4138678;28;20235;-78
2022/06/18 06:35:43;;;;;;;1.67;0.97;;;21.10;64.70;;;;;;4146608;28;20703;-78
2022/06/18 06:37:45;;;;;;;2.33;1.10;;;21.20;65.10;;;;;;4141679;28;20713;-78
2022/06/18 06:39:48;;;;;;;1.37;1.20;;;21.30;64.70;;;;;;4136385;28;20224;-78
2022/06/18 06:41:50;;;;;;;1.97;1.30;;;21.40;64.40;;;;;;4129657;28;20256;-77
2022/06/18 06:43:52;;;;;;;4.20;1.20;;;21.40;62.90;;;;;;4137859;28;20275;-77
2022/06/18 06:45:54;;;;;;;3.43;1.17;;;21.60;62.10;;;;;;4141171;28;20239;-77
2022/06/18 06:47:57;;;;;;;2.27;1.00;;;21.70;59.50;;;;;;4141132;28;20295;-77
2022/06/18 06:49:59;;;;;;;3.83;1.17;;;21.90;58.40;;;;;;4144078;28;20725;-77
2022/06/18 06:52:01;;;;;;;1.90;1.10;;;21.90;58.80;;;;;;4141401;28;20260;-77
2022/06/18 06:54:04;;;;;;;1.73;1.17;;;22.00;57.50;;;;;;4137356;28;20260;-78
2022/06/18 06:58:29;;;;;;;3.47;1.17;;;22.20;56.90;;;;;;4151333;28;20233;-77
2022/06/18 07:00:33;;;;;;;5.37;1.10;;;22.50;52.90;;;;;;4143227;28;20720;-78
2022/06/18 07:02:35;;;;;;;3.17;1.20;;;22.70;52.00;;;;;;4137518;28;20874;-77
2022/06/18 07:04:37;;;;;;;1.53;0.93;;;22.80;51.00;;;;;;4143767;28;20799;-78
2022/06/18 07:06:39;;;;;;;1.67;0.97;;;22.90;51.00;;;;;;4144858;28;20282;-78
2022/06/18 07:08:41;;;;;;;2.10;1.10;;;23.00;49.70;;;;;;4143795;28;20224;-81
2022/06/18 07:10:44;;;;;;;1.17;0.90;;;23.10;49.90;;;;;;4143249;28;20214;-78
2022/06/18 07:12:47;;;;;;;1.93;1.13;;;23.20;49.90;;;;;;4145881;28;20319;-78
2022/06/18 07:14:49;;;;;;;1.40;1.00;;;23.30;49.90;;;;;;4146233;28;20597;-78
2022/06/18 07:16:53;;;;;;;2.90;1.10;;;23.30;48.90;;;;;;4158822;28;20302;-78
2022/06/18 07:18:56;;;;;;;1.70;1.17;;;23.40;48.20;;;;;;4142585;28;20661;-77
2022/06/18 07:20:59;;;;;;;1.50;1.00;;;23.50;48.70;;;;;;4125515;28;20215;-77
2022/06/18 07:23:01;;;;;;;2.23;1.00;;;23.50;48.50;;;;;;4124824;28;20232;-78
2022/06/18 07:25:03;;;;;;;3.07;1.30;;;23.60;46.70;;;;;;4146426;28;20290;-79
2022/06/18 07:27:06;;;;;;;2.20;1.10;;;23.70;45.20;;;;;;4130034;28;20263;-80
2022/06/18 07:29:09;;;;;;;1.00;0.90;;;23.80;44.50;;;;;;4125662;28;20757;-72
2022/06/18 07:31:16;;;;;;;2.97;1.10;;;24.00;44.30;;;;;;4149088;28;20258;-81
2022/06/18 07:33:21;;;;;;;3.73;1.10;;;24.10;44.40;;;;;;4138825;28;20218;-77
2022/06/18 07:35:26;;;;;;;1.53;0.87;;;24.20;43.60;;;;;;4140563;28;20216;-76
2022/06/18 07:37:29;;;;;;;2.47;1.00;;;24.30;43.50;;;;;;4139720;28;20212;-76
2022/06/18 07:39:31;;;;;;;2.83;1.23;;;24.30;43.60;;;;;;4137657;28;20211;-76
2022/06/18 07:41:37;;;;;;;1.20;1.00;;;24.40;44.00;;;;;;4142526;28;20235;-72
2022/06/18 07:43:41;;;;;;;3.83;1.00;;;24.50;44.30;;;;;;4139319;28;20201;-77
2022/06/18 07:45:46;;;;;;;4.53;1.13;;;24.50;43.70;;;;;;4143071;28;20216;-77
2022/06/18 07:47:49;;;;;;;1.33;1.10;;;24.60;44.40;;;;;;4123861;28;20612;-78
2022/06/18 07:49:50;;;;;;;2.03;1.00;;;24.60;43.10;;;;;;4145672;28;20263;-78
2022/06/18 07:51:52;;;;;;;6.10;1.20;;;24.70;43.80;;;;;;4139982;28;20252;-77
2022/06/18 07:54:00;;;;;;;1.47;0.90;;;24.70;45.50;;;;;;4147835;28;20236;-79
2022/06/18 07:56:02;;;;;;;3.17;1.03;;;24.70;45.90;;;;;;4145667;28;20671;-79
2022/06/18 07:58:04;;;;;;;1.00;0.90;;;24.80;45.20;;;;;;4140081;28;20236;-77
2022/06/18 08:00:07;;;;;;;2.03;1.20;;;24.80;45.70;;;;;;4141679;28;20279;-76
2022/06/18 08:02:12;;;;;;;2.50;1.20;;;24.90;43.70;;;;;;4151628;28;20298;-76
2022/06/18 08:04:14;;;;;;;3.13;1.00;;;25.00;42.70;;;;;;4139135;28;20223;-77
2022/06/18 08:06:16;;;;;;;3.10;0.93;;;25.00;42.90;;;;;;4146668;28;20207;-83
2022/06/18 08:08:18;;;;;;;2.77;1.07;;;25.10;42.80;;;;;;4145460;28;20242;-84
2022/06/18 08:10:20;;;;;;;3.13;1.07;;;25.20;42.50;;;;;;4146895;28;20211;-81
2022/06/18 08:12:25;;;;;;;3.50;1.27;;;25.30;42.70;;;;;;4138961;28;20560;-79
2022/06/18 08:14:27;;;;;;;1.47;1.00;;;25.30;44.20;;;;;;4159108;28;20203;-78
2022/06/18 08:16:29;;;;;;;0.87;0.77;;;25.40;42.40;;;;;;4145714;28;20291;-79
2022/06/18 08:18:32;;;;;;;3.10;0.90;;;25.50;42.00;;;;;;4143372;28;20692;-79
2022/06/18 08:20:36;;;;;;;2.50;1.23;;;25.60;42.40;;;;;;4146224;28;20644;-81
2022/06/18 08:22:44;;;;;;;2.07;1.20;;;25.60;42.10;;;;;;4142952;28;20227;-77
2022/06/18 08:24:47;;;;;;;6.20;1.00;;;25.70;41.40;;;;;;4143186;28;20223;-79
2022/06/18 08:26:52;;;;;;;1.00;0.90;;;25.80;42.20;;;;;;4125728;28;20809;-80
2022/06/18 08:28:56;;;;;;;1.60;1.00;;;25.80;42.60;;;;;;4135158;28;20220;-81
2022/06/18 08:30:58;;;;;;;2.20;0.90;;;25.90;41.30;;;;;;4138568;28;20242;-82
2022/06/18 08:33:00;;;;;;;1.27;1.10;;;26.00;41.90;;;;;;4124443;28;20652;-81
2022/06/18 08:35:04;;;;;;;1.57;1.00;;;26.10;41.90;;;;;;4136875;28;20840;-78
2022/06/18 08:39:45;;;;;;;1.33;1.00;;;26.20;42.80;;;;;;4077739;28;20297;-79
2022/06/18 08:42:06;;;;;;;1.83;1.20;;;26.20;43.50;;;;;;4134107;28;20232;-80
2022/06/18 08:44:35;;;;;;;1.27;1.00;;;26.30;44.10;;;;;;4137648;28;20208;-76
2022/06/18 08:46:45;;;;;;;1.93;1.00;;;26.40;42.50;;;;;;4133702;28;20215;-81
2022/06/18 08:49:09;;;;;;;1.43;1.00;;;26.40;42.20;;;;;;4140867;28;20713;-81
2022/06/18 08:51:25;;;;;;;3.13;1.20;;;26.50;43.20;;;;;;4122155;28;20228;-82
2022/06/18 08:53:54;;;;;;;3.00;1.17;;;26.50;43.40;;;;;;4139462;28;20920;-80
2022/06/18 08:56:03;;;;;;;2.20;1.10;;;26.70;40.50;;;;;;4136475;28;20219;-80
2022/06/18 08:58:15;;;;;;;3.13;1.30;;;26.70;41.70;;;;;;4141379;28;20752;-79
2022/06/18 09:00:25;;;;;;;3.13;1.10;;;26.70;41.40;;;;;;4135314;28;20209;-78
2022/06/18 09:02:36;;;;;;;3.40;0.90;;;26.80;41.30;;;;;;4133605;28;20231;-77
2022/06/18 09:04:54;;;;;;;2.07;1.17;;;27.00;41.60;;;;;;4141087;28;20228;-79
2022/06/18 09:07:10;;;;;;;1.97;1.00;;;27.00;40.80;;;;;;4142924;28;20240;-79
2022/06/18 09:09:22;;;;;;;3.17;1.13;;;27.10;41.60;;;;;;4137654;28;20231;-77
2022/06/18 09:11:48;;;;;;;2.33;0.97;;;27.20;41.30;;;;;;4138474;28;20249;-78
2022/06/18 09:13:57;;;;;;;1.97;1.10;;;27.30;40.80;;;;;;4142855;28;20230;-80
2022/06/18 09:16:03;;;;;;;2.67;1.10;;;27.30;40.80;;;;;;4138370;28;20214;-78
2022/06/18 09:18:11;;;;;;;2.30;1.10;;;27.40;41.80;;;;;;4149453;28;20200;-78
2022/06/18 09:20:19;;;;;;;2.30;1.30;;;27.50;40.70;;;;;;4154584;28;20306;-78
2022/06/18 09:22:23;;;;;;;3.90;1.20;;;27.60;40.30;;;;;;4153550;28;20251;-77
2022/06/18 09:24:30;;;;;;;4.40;1.20;;;27.70;40.70;;;;;;4160644;28;20778;-78
2022/06/18 09:26:36;;;;;;;1.63;1.10;;;27.80;40.10;;;;;;4154176;28;20207;-76
2022/06/18 09:28:44;;;;;;;2.73;1.20;;;27.90;39.80;;;;;;4135687;28;20242;-77
2022/06/18 09:30:51;;;;;;;1.97;1.10;;;27.90;40.50;;;;;;4162984;28;20199;-75
2022/06/18 09:32:59;;;;;;;4.50;1.20;;;28.00;40.70;;;;;;4139728;28;20231;-77
2022/06/18 09:35:07;;;;;;;1.43;1.03;;;28.00;39.80;;;;;;4137783;28;20242;-76
2022/06/18 09:37:16;;;;;;;2.33;1.20;;;28.10;41.40;;;;;;4142092;28;20204;-78
2022/06/18 09:39:23;;;;;;;2.17;1.10;;;28.10;40.30;;;;;;4137662;28;20204;-78
2022/06/18 09:41:30;;;;;;;2.83;1.10;;;28.20;39.80;;;;;;4141051;28;20243;-79
2022/06/18 09:43:53;;;;;;;1.77;1.10;;;28.30;39.80;;;;;;4144416;28;20230;-77
2022/06/18 09:46:00;;;;;;;2.43;1.30;;;28.40;40.10;;;;;;4147388;28;20247;-75
2022/06/18 09:48:02;;;;;;;3.23;1.30;;;28.40;40.90;;;;;;4135973;28;20204;-77
2022/06/18 09:50:14;;;;;;;5.57;1.30;;;28.50;40.50;;;;;;4135878;28;20256;-79
2022/06/18 09:52:20;;;;;;;2.53;1.30;;;28.60;40.30;;;;;;4142384;28;20231;-79
2022/06/18 09:54:28;;;;;;;4.33;1.63;;;28.70;40.30;;;;;;4118528;28;20209;-78
2022/06/18 09:56:35;;;;;;;3.53;1.33;;;28.80;39.90;;;;;;4143563;28;20203;-79
2022/06/18 09:58:42;;;;;;;3.73;1.37;;;28.80;39.40;;;;;;4133323;28;21055;-78
2022/06/18 10:00:47;;;;;;;2.50;1.13;;;28.80;41.00;;;;;;4137084;28;20212;-78
2022/06/18 10:02:55;;;;;;;5.70;1.63;;;28.90;41.40;;;;;;4146345;28;20310;-79
2022/06/18 10:07:23;;;;;;;4.45;1.50;;;29.10;41.00;;;;;;4144841;28;20195;-76
2022/06/18 10:09:32;;;;;;;4.78;1.75;;;29.10;40.60;;;;;;4139232;28;20606;-75
2022/06/18 10:11:34;;;;;;;6.55;1.60;;;29.20;40.60;;;;;;4140432;28;20208;-78
2022/06/18 10:13:43;;;;;;;5.88;1.63;;;29.20;40.30;;;;;;4139882;28;20219;-80
2022/06/18 10:15:45;;;;;;;3.33;1.30;;;29.30;41.50;;;;;;4136835;28;20219;-79
2022/06/18 10:18:00;;;;;;;3.10;1.63;;;29.40;39.30;;;;;;4140145;28;20744;-78
2022/06/18 10:20:09;;;;;;;5.30;1.90;;;29.50;39.30;;;;;;4144699;28;21649;-76
2022/06/18 10:22:22;;;;;;;7.68;1.70;;;29.50;39.50;;;;;;4137488;28;20259;-78
2022/06/18 10:24:33;;;;;;;5.00;2.20;;;29.60;38.10;;;;;;4140456;28;20437;-77
2022/06/18 10:26:43;;;;;;;6.97;1.73;;;29.60;38.90;;;;;;4139791;28;20295;-76
2022/06/18 10:28:56;;;;;;;6.13;1.80;;;29.70;39.20;;;;;;4135492;28;20208;-79
2022/06/18 10:31:06;;;;;;;7.07;1.60;;;29.80;37.30;;;;;;4122147;28;20315;-79
2022/06/18 10:33:22;;;;;;;6.40;2.10;;;29.80;37.60;;;;;;4138739;28;20353;-79
2022/06/18 10:35:44;;;;;;;5.05;1.38;;;29.90;37.70;;;;;;4127033;28;20268;-79
2022/06/18 10:37:56;;;;;;;4.03;1.65;;;29.90;37.30;;;;;;4143397;28;20255;-78
2022/06/18 10:40:08;;;;;;;3.65;1.60;;;30.00;37.90;;;;;;4140259;28;20219;-80
2022/06/18 10:42:32;;;;;;;3.50;1.52;;;30.00;37.30;;;;;;4143975;28;20314;-80
2022/06/18 10:44:49;;;;;;;2.15;1.40;;;30.10;38.20;;;;;;4138235;28;20255;-79
2022/06/18 10:47:05;;;;;;;3.88;1.70;;;30.20;37.50;;;;;;4125520;28;20213;-80
2022/06/18 10:49:08;;;;;;;4.65;1.83;;;30.20;39.60;;;;;;4116866;28;20243;-78
2022/06/18 10:51:16;;;;;;;3.63;1.67;;;30.30;38.90;;;;;;4135963;28;20248;-79
2022/06/18 10:53:20;;;;;;;4.72;1.88;;;30.30;37.60;;;;;;4140162;28;20222;-80
2022/06/18 10:55:23;;;;;;;5.55;1.85;;;30.40;37.40;;;;;;4139000;28;20399;-77
2022/06/18 10:57:27;;;;;;;4.78;1.77;;;30.50;37.90;;;;;;4137756;28;20212;-77
2022/06/18 10:59:31;;;;;;;5.90;1.50;;;30.50;36.80;;;;;;4134369;28;20654;-82
2022/06/18 11:01:36;;;;;;;2.72;1.52;;;30.60;36.70;;;;;;4139362;28;20212;-80
2022/06/18 11:03:38;;;;;;;6.53;1.77;;;30.70;38.00;;;;;;4139463;28;20277;-79
2022/06/18 11:05:45;;;;;;;4.72;1.58;;;30.80;38.50;;;;;;4144067;28;20267;-79